Time;durP1;ratioP1;P1;durP2;ratioP2;P2;SDS_P1;SDS_P2;PMS_P1;PMS_P2;Temp;Humidity;BMP_temperature;BMP_pressure;BME280_temperature;BME280_humidity;BME280_pressure;Samples;Min_cycle;Max_cycle;Signal;HPM_P1;HPM_P2
2022/08/31 00:04:09;;;;;;;1.90;1.05;;;16.40;99.90;;;;;;4975198;28;20490;-65
2022/08/31 00:06:35;;;;;;;1.13;0.97;;;16.30;99.90;;;;;;4974168;28;20479;-65
2022/08/31 00:09:04;;;;;;;1.00;0.90;;;16.40;99.90;;;;;;4973189;28;20407;-65
2022/08/31 00:11:30;;;;;;;1.38;1.00;;;16.40;99.90;;;;;;4972520;28;20454;-65
2022/08/31 00:14:03;;;;;;;1.42;0.93;;;16.30;99.90;;;;;;4974942;28;20435;-65
2022/08/31 00:16:31;;;;;;;4.20;1.20;;;16.20;99.90;;;;;;4974527;28;20472;-65
2022/08/31 00:18:57;;;;;;;3.00;1.33;;;16.20;99.90;;;;;;4975188;28;20404;-65
2022/08/31 00:21:25;;;;;;;1.33;1.10;;;16.10;99.90;;;;;;4975017;28;20638;-65
2022/08/31 00:23:51;;;;;;;2.22;0.90;;;16.20;99.90;;;;;;4974095;28;21021;-65
2022/08/31 00:26:17;;;;;;;1.90;0.90;;;16.10;99.90;;;;;;4976158;28;20842;-65
2022/08/31 00:28:43;;;;;;;2.60;1.10;;;16.00;99.90;;;;;;4975941;28;20470;-65
2022/08/31 00:31:09;;;;;;;2.63;0.80;;;16.00;99.90;;;;;;4975631;28;20555;-65
2022/08/31 00:33:35;;;;;;;2.35;1.20;;;16.00;99.90;;;;;;4975406;28;20384;-65
2022/08/31 00:36:04;;;;;;;1.83;1.20;;;16.00;99.90;;;;;;4975669;28;20408;-65
2022/08/31 00:38:29;;;;;;;2.00;1.10;;;16.00;99.90;;;;;;4976042;28;20395;-65
2022/08/31 00:40:55;;;;;;;2.40;0.90;;;16.00;99.90;;;;;;4976737;28;20470;-65
2022/08/31 00:43:38;;;;;;;2.03;1.00;;;16.00;99.90;;;;;;4977355;28;20431;-65
2022/08/31 00:46:05;;;;;;;1.65;0.80;;;15.90;99.90;;;;;;4977387;28;20442;-65
2022/08/31 00:48:30;;;;;;;1.80;0.90;;;15.90;99.90;;;;;;4976911;28;20614;-65
2022/08/31 00:50:57;;;;;;;2.42;0.90;;;15.80;99.90;;;;;;4983068;28;20674;-65
2022/08/31 00:53:23;;;;;;;1.25;0.90;;;15.90;99.90;;;;;;5000020;28;20796;-65
2022/08/31 00:55:49;;;;;;;1.60;0.83;;;15.80;99.90;;;;;;4999201;28;20393;-65
2022/08/31 00:58:14;;;;;;;2.50;0.90;;;15.80;99.90;;;;;;4999488;28;20543;-65
2022/08/31 01:00:44;;;;;;;1.60;0.70;;;15.80;99.90;;;;;;4999325;28;20393;-65
2022/08/31 01:03:10;;;;;;;2.45;0.80;;;15.80;99.90;;;;;;4998996;28;20455;-64
2022/08/31 01:05:37;;;;;;;1.55;0.80;;;15.80;99.90;;;;;;5015918;28;20432;-65
2022/08/31 01:08:04;;;;;;;2.83;0.90;;;15.70;99.90;;;;;;5015502;28;20385;-65
2022/08/31 01:10:37;;;;;;;1.23;0.98;;;15.70;99.90;;;;;;5016163;28;20490;-65
2022/08/31 01:13:03;;;;;;;1.50;0.95;;;15.70;99.90;;;;;;4998162;28;20550;-64
2022/08/31 01:15:30;;;;;;;1.05;0.80;;;15.60;99.90;;;;;;5015607;28;20757;-64
2022/08/31 01:18:00;;;;;;;1.40;0.77;;;15.60;99.90;;;;;;5015872;28;20712;-64
2022/08/31 01:20:45;;;;;;;0.70;0.70;;;15.60;99.90;;;;;;5015830;28;21036;-64
2022/08/31 01:23:32;;;;;;;1.75;0.80;;;15.50;99.90;;;;;;4998526;28;20408;-64
2022/08/31 01:25:58;;;;;;;1.70;0.95;;;15.50;99.90;;;;;;5015864;28;20457;-64
2022/08/31 01:28:25;;;;;;;0.60;0.60;;;15.50;99.90;;;;;;5015970;28;20385;-64
2022/08/31 01:31:22;;;;;;;1.00;0.70;;;15.40;99.90;;;;;;4998659;28;20815;-64
2022/08/31 01:34:07;;;;;;;1.42;0.68;;;15.40;99.90;;;;;;4971181;28;20393;-64
2022/08/31 01:36:35;;;;;;;0.80;0.60;;;15.40;99.90;;;;;;4998197;28;20416;-64
2022/08/31 01:39:01;;;;;;;0.80;0.70;;;15.30;99.90;;;;;;4999060;28;20392;-64
2022/08/31 01:41:26;;;;;;;0.67;0.60;;;15.40;99.90;;;;;;5015963;28;20404;-64
2022/08/31 01:43:53;;;;;;;0.85;0.50;;;15.30;99.90;;;;;;4999277;28;20499;-64
2022/08/31 01:46:19;;;;;;;1.77;0.63;;;15.30;99.90;;;;;;4998349;28;20389;-64
2022/08/31 01:48:47;;;;;;;2.10;0.80;;;15.30;99.90;;;;;;4998239;28;21036;-65
2022/08/31 01:51:15;;;;;;;2.10;0.70;;;15.30;99.90;;;;;;4998438;28;20409;-65
2022/08/31 01:53:42;;;;;;;1.17;0.65;;;15.30;99.90;;;;;;4998246;28;20458;-64
2022/08/31 01:56:15;;;;;;;1.00;0.70;;;15.30;99.90;;;;;;4998062;28;20458;-66
2022/08/31 01:58:40;;;;;;;0.82;0.60;;;15.20;99.90;;;;;;5000032;28;20403;-65
2022/08/31 02:01:27;;;;;;;1.20;0.60;;;15.20;99.90;;;;;;5002145;28;20392;-64
2022/08/31 02:03:53;;;;;;;3.00;0.70;;;15.20;99.90;;;;;;5018581;28;20421;-65
2022/08/31 02:06:19;;;;;;;0.50;0.50;;;15.20;99.90;;;;;;5002114;28;20412;-65
2022/08/31 02:08:44;;;;;;;2.03;0.90;;;15.00;99.90;;;;;;5002026;28;20443;-65
2022/08/31 02:11:10;;;;;;;1.40;0.80;;;15.00;99.90;;;;;;5020413;28;20781;-65
2022/08/31 02:13:35;;;;;;;1.92;0.90;;;15.00;99.90;;;;;;5002781;28;20396;-65
2022/08/31 02:16:02;;;;;;;1.00;0.70;;;15.00;99.90;;;;;;5002956;28;20419;-65
2022/08/31 02:18:27;;;;;;;2.08;0.70;;;15.10;99.90;;;;;;5019691;28;20388;-65
2022/08/31 02:20:53;;;;;;;1.10;0.60;;;15.00;99.90;;;;;;5002387;28;20412;-65
2022/08/31 02:23:19;;;;;;;1.20;0.70;;;14.90;99.90;;;;;;5002294;28;20444;-64
2022/08/31 02:25:46;;;;;;;1.25;0.60;;;14.90;99.90;;;;;;5002776;28;20385;-64
2022/08/31 02:28:12;;;;;;;0.60;0.60;;;14.90;99.90;;;;;;5001694;28;20488;-64
2022/08/31 02:30:40;;;;;;;1.08;0.60;;;14.80;99.90;;;;;;5017766;28;20755;-64
2022/08/31 02:33:06;;;;;;;2.13;0.77;;;14.80;99.90;;;;;;5019300;28;20392;-64
2022/08/31 02:35:32;;;;;;;1.95;0.70;;;14.80;99.90;;;;;;5002470;28;20474;-64
2022/08/31 02:37:58;;;;;;;0.90;0.70;;;14.70;99.90;;;;;;5019039;28;20389;-64
2022/08/31 02:40:23;;;;;;;1.43;0.70;;;14.60;99.90;;;;;;5002026;28;20400;-64
2022/08/31 02:42:49;;;;;;;1.80;0.70;;;14.70;99.90;;;;;;5002390;28;20513;-64
2022/08/31 02:45:14;;;;;;;1.07;0.70;;;14.60;99.90;;;;;;5000731;28;20404;-64
2022/08/31 02:47:53;;;;;;;0.90;0.67;;;14.50;99.90;;;;;;5018990;28;20389;-64
2022/08/31 02:50:19;;;;;;;1.55;0.60;;;14.50;99.90;;;;;;5001384;28;20413;-64
2022/08/31 02:52:46;;;;;;;1.70;0.68;;;14.50;99.90;;;;;;5001275;28;20764;-64
2022/08/31 02:55:12;;;;;;;0.90;0.60;;;14.50;99.90;;;;;;4999520;28;20470;-64
2022/08/31 02:57:38;;;;;;;0.70;0.70;;;14.50;99.90;;;;;;5000443;28;20740;-64
2022/08/31 03:00:06;;;;;;;1.13;0.60;;;14.50;99.90;;;;;;5000637;28;20412;-64
2022/08/31 03:02:32;;;;;;;1.30;0.70;;;14.40;99.90;;;;;;5017502;28;20408;-64
2022/08/31 03:05:00;;;;;;;0.93;0.60;;;14.30;99.90;;;;;;5001423;28;20458;-65
2022/08/31 03:07:26;;;;;;;0.65;0.60;;;14.40;99.90;;;;;;5001561;28;20381;-65
2022/08/31 03:09:52;;;;;;;0.95;0.55;;;14.30;99.90;;;;;;5000828;28;20392;-64
2022/08/31 03:12:19;;;;;;;0.50;0.50;;;14.40;99.90;;;;;;5018448;28;20381;-65
2022/08/31 03:14:44;;;;;;;1.20;0.73;;;14.40;99.90;;;;;;5018441;28;20796;-65
2022/08/31 03:17:10;;;;;;;1.10;0.80;;;14.40;99.90;;;;;;5001096;28;20403;-65
2022/08/31 03:19:35;;;;;;;1.80;0.77;;;14.40;99.90;;;;;;5001699;28;20827;-64
2022/08/31 03:22:01;;;;;;;0.90;0.70;;;14.40;99.90;;;;;;5001640;28;20454;-64
2022/08/31 03:24:27;;;;;;;1.53;1.03;;;14.40;99.90;;;;;;5000184;28;20417;-65
2022/08/31 03:26:53;;;;;;;1.30;1.00;;;14.30;99.90;;;;;;5001364;28;20416;-65
2022/08/31 03:29:18;;;;;;;2.00;1.10;;;14.30;99.90;;;;;;5018453;28;20392;-65
2022/08/31 03:31:44;;;;;;;2.17;1.07;;;14.30;99.90;;;;;;5017101;28;20743;-64
2022/08/31 03:34:10;;;;;;;1.20;0.98;;;14.30;99.90;;;;;;4998005;28;20404;-64
2022/08/31 03:36:35;;;;;;;1.48;0.80;;;14.20;99.90;;;;;;5000016;28;20462;-65
2022/08/31 03:39:01;;;;;;;1.63;1.07;;;14.30;99.90;;;;;;5000811;28;20483;-64
2022/08/31 03:41:27;;;;;;;2.03;1.00;;;14.30;99.90;;;;;;5017699;28;20478;-64
2022/08/31 03:43:53;;;;;;;1.65;0.90;;;14.20;99.90;;;;;;4999771;28;20432;-64
2022/08/31 03:46:18;;;;;;;1.75;1.15;;;14.20;99.90;;;;;;4999173;28;20824;-64
2022/08/31 03:48:46;;;;;;;2.13;1.30;;;14.20;99.90;;;;;;5016295;28;20412;-65
2022/08/31 03:51:13;;;;;;;2.20;1.20;;;14.20;99.90;;;;;;4995564;28;20437;-64
2022/08/31 03:57:02;;;;;;;1.20;1.10;;;14.20;99.90;;;;;;4997035;28;20457;-65
2022/08/31 03:59:28;;;;;;;1.08;0.98;;;14.10;99.90;;;;;;4996090;28;20382;-64
2022/08/31 04:01:53;;;;;;;3.67;1.30;;;14.10;99.90;;;;;;4994081;28;20403;-64
2022/08/31 04:04:19;;;;;;;2.50;1.00;;;14.00;99.90;;;;;;4993767;28;21045;-64
2022/08/31 04:06:44;;;;;;;2.10;1.00;;;14.00;99.90;;;;;;4993875;28;20407;-64
2022/08/31 04:09:11;;;;;;;1.55;1.00;;;13.90;99.90;;;;;;4992157;28;20398;-64
2022/08/31 04:11:41;;;;;;;1.63;1.02;;;14.00;99.90;;;;;;4990982;28;20414;-65
2022/08/31 04:14:06;;;;;;;0.90;0.80;;;14.00;99.90;;;;;;4991426;28;20396;-65
2022/08/31 04:16:33;;;;;;;1.60;1.10;;;14.00;99.90;;;;;;4990450;28;20467;-64
2022/08/31 04:18:59;;;;;;;4.60;1.27;;;14.00;99.90;;;;;;4989931;28;20398;-65
2022/08/31 04:21:29;;;;;;;1.58;1.08;;;13.90;99.90;;;;;;4989675;28;20414;-64
2022/08/31 04:23:55;;;;;;;2.35;1.25;;;13.90;99.90;;;;;;4989889;28;20907;-64
2022/08/31 04:26:28;;;;;;;1.75;1.38;;;13.90;99.90;;;;;;4992063;28;20482;-64
2022/08/31 04:28:53;;;;;;;3.13;1.20;;;13.90;99.90;;;;;;4992956;28;20382;-65
2022/08/31 04:31:21;;;;;;;1.92;1.10;;;13.90;99.90;;;;;;4993674;28;20390;-65
2022/08/31 04:33:47;;;;;;;1.70;1.00;;;13.90;99.90;;;;;;4993671;28;20386;-65
2022/08/31 04:36:18;;;;;;;1.48;1.05;;;13.80;99.90;;;;;;4993402;28;20410;-65
2022/08/31 04:38:46;;;;;;;1.65;1.00;;;13.80;99.90;;;;;;4990868;28;20825;-64
2022/08/31 04:41:16;;;;;;;1.70;1.10;;;13.90;99.90;;;;;;4992892;28;20482;-64
2022/08/31 04:43:47;;;;;;;4.07;1.10;;;13.90;99.90;;;;;;4992645;28;20470;-64
2022/08/31 04:46:13;;;;;;;2.20;1.20;;;13.90;99.90;;;;;;4992113;28;20418;-64
2022/08/31 04:48:40;;;;;;;1.38;1.10;;;13.90;99.90;;;;;;4992738;28;20496;-64
2022/08/31 04:51:07;;;;;;;1.40;1.10;;;14.00;99.90;;;;;;4992840;28;20422;-64
2022/08/31 04:53:35;;;;;;;1.60;1.00;;;13.90;99.90;;;;;;4991527;28;20398;-64
2022/08/31 04:56:06;;;;;;;1.87;1.10;;;13.90;99.90;;;;;;4991232;28;20394;-64
2022/08/31 04:58:32;;;;;;;1.67;1.00;;;13.90;99.90;;;;;;4991597;28;20405;-65
2022/08/31 05:00:58;;;;;;;1.35;0.95;;;13.90;99.90;;;;;;4990095;28;20425;-64
2022/08/31 05:03:23;;;;;;;1.42;1.10;;;13.90;99.90;;;;;;4990240;28;20410;-64
2022/08/31 05:05:51;;;;;;;3.30;1.30;;;13.90;99.90;;;;;;4990764;28;20414;-64
2022/08/31 05:08:17;;;;;;;2.47;0.90;;;13.90;99.90;;;;;;4989521;28;20469;-64
2022/08/31 05:10:44;;;;;;;1.27;1.17;;;13.90;99.90;;;;;;4989834;28;20378;-65
2022/08/31 05:13:10;;;;;;;3.20;1.30;;;13.90;99.90;;;;;;4989147;28;20504;-64
2022/08/31 05:15:43;;;;;;;2.50;1.20;;;13.90;99.90;;;;;;4988853;28;20542;-64
2022/08/31 05:18:10;;;;;;;2.00;1.20;;;13.80;99.90;;;;;;4989701;28;20481;-64
2022/08/31 05:20:36;;;;;;;2.70;1.30;;;13.80;99.90;;;;;;4988409;28;20402;-64
2022/08/31 05:23:02;;;;;;;1.70;1.05;;;13.90;99.90;;;;;;4989534;28;20418;-65
2022/08/31 05:25:27;;;;;;;3.83;1.05;;;13.90;99.90;;;;;;4988352;28;20413;-64
2022/08/31 05:27:53;;;;;;;1.70;1.20;;;13.90;99.90;;;;;;4973290;28;20403;-65
2022/08/31 05:30:20;;;;;;;1.40;1.03;;;14.00;99.90;;;;;;4990072;28;20397;-64
2022/08/31 05:32:46;;;;;;;4.38;1.50;;;14.00;99.90;;;;;;4991251;28;20460;-65
2022/08/31 05:35:11;;;;;;;1.83;1.35;;;14.00;99.90;;;;;;4994634;28;20628;-64
2022/08/31 05:37:38;;;;;;;2.15;1.48;;;14.00;99.90;;;;;;4994828;28;20398;-64
2022/08/31 05:40:05;;;;;;;1.75;1.30;;;14.10;99.90;;;;;;4993451;28;20392;-65
2022/08/31 05:42:31;;;;;;;3.05;1.10;;;14.00;99.90;;;;;;4994083;28;20410;-64
2022/08/31 05:44:57;;;;;;;3.05;1.27;;;14.10;99.90;;;;;;4993105;28;20421;-65
2022/08/31 05:47:23;;;;;;;3.00;1.15;;;14.10;99.90;;;;;;4993301;28;20389;-64
2022/08/31 05:49:49;;;;;;;1.45;1.10;;;14.20;99.90;;;;;;4993414;28;20402;-64
2022/08/31 05:52:14;;;;;;;1.92;1.25;;;14.20;99.90;;;;;;4992242;28;20414;-64
2022/08/31 05:54:40;;;;;;;2.20;1.20;;;14.30;99.90;;;;;;4992436;28;20390;-64
2022/08/31 05:57:07;;;;;;;3.20;1.20;;;14.30;99.90;;;;;;4990913;28;20394;-65
2022/08/31 05:59:34;;;;;;;2.20;1.50;;;14.40;99.90;;;;;;4991129;28;20394;-65
2022/08/31 06:02:00;;;;;;;2.70;2.00;;;14.40;99.90;;;;;;4989560;28;20387;-65
2022/08/31 06:04:27;;;;;;;2.78;1.88;;;14.40;99.90;;;;;;4988522;28;20421;-64
2022/08/31 06:06:53;;;;;;;1.80;1.30;;;14.50;99.90;;;;;;4987289;28;20479;-64
2022/08/31 06:09:19;;;;;;;4.00;1.30;;;14.50;99.90;;;;;;4985501;28;20495;-64
2022/08/31 06:11:45;;;;;;;1.55;1.10;;;14.50;99.90;;;;;;4986808;28;20394;-65
2022/08/31 06:14:11;;;;;;;1.73;1.10;;;14.60;99.90;;;;;;4984212;28;20480;-64
2022/08/31 06:16:38;;;;;;;1.02;0.93;;;14.70;99.90;;;;;;4985821;28;20817;-64
2022/08/31 06:19:06;;;;;;;1.70;1.07;;;14.80;99.90;;;;;;4984438;28;20406;-65
2022/08/31 06:21:34;;;;;;;1.30;0.80;;;14.80;99.90;;;;;;4985458;28;20406;-65
2022/08/31 06:24:02;;;;;;;1.25;0.90;;;14.90;99.90;;;;;;4985699;28;20414;-64
2022/08/31 06:26:31;;;;;;;1.38;1.00;;;14.90;99.90;;;;;;4986264;28;20425;-64
2022/08/31 06:29:00;;;;;;;1.10;1.00;;;15.00;99.90;;;;;;4988345;28;20948;-64
2022/08/31 06:31:32;;;;;;;1.35;0.85;;;15.00;99.90;;;;;;4985396;28;20401;-64
2022/08/31 06:34:00;;;;;;;2.17;0.93;;;15.10;99.90;;;;;;4987859;28;20868;-64
2022/08/31 06:36:28;;;;;;;1.20;1.00;;;15.10;99.90;;;;;;4986308;28;20413;-65
2022/08/31 06:38:57;;;;;;;2.17;1.03;;;15.10;99.90;;;;;;4987687;28;20390;-64
2022/08/31 06:41:26;;;;;;;1.05;0.80;;;15.20;99.90;;;;;;4989498;28;20776;-64
2022/08/31 06:43:52;;;;;;;1.67;0.80;;;15.20;99.90;;;;;;4987199;28;20798;-64
2022/08/31 06:46:21;;;;;;;2.00;0.60;;;15.20;99.90;;;;;;4985779;28;20383;-64
2022/08/31 06:48:47;;;;;;;0.60;0.60;;;15.30;99.90;;;;;;4986149;28;20387;-64
2022/08/31 06:51:13;;;;;;;0.93;0.65;;;15.40;99.90;;;;;;4985528;28;20441;-64
2022/08/31 06:53:41;;;;;;;1.60;0.80;;;15.40;99.90;;;;;;4985444;28;20480;-64
2022/08/31 06:56:11;;;;;;;2.05;0.60;;;15.50;99.90;;;;;;4983956;28;21027;-64
2022/08/31 06:58:37;;;;;;;1.45;0.77;;;15.50;99.90;;;;;;4984613;28;20394;-65
2022/08/31 07:01:08;;;;;;;1.10;0.60;;;15.60;99.90;;;;;;4984493;28;20398;-64
2022/08/31 07:03:36;;;;;;;1.48;0.70;;;15.70;99.90;;;;;;4982070;28;20406;-65
2022/08/31 07:06:08;;;;;;;0.80;0.80;;;15.70;99.90;;;;;;4980891;28;20398;-64
2022/08/31 07:08:35;;;;;;;1.95;1.13;;;15.80;99.90;;;;;;4982134;28;20393;-64
2022/08/31 07:11:01;;;;;;;2.67;1.50;;;15.80;99.90;;;;;;4979491;28;20391;-65
2022/08/31 07:13:27;;;;;;;1.73;1.10;;;15.90;99.90;;;;;;4981412;28;20469;-64
2022/08/31 07:16:03;;;;;;;0.80;0.73;;;16.00;99.90;;;;;;4982726;28;20506;-65
2022/08/31 07:18:28;;;;;;;2.00;1.00;;;16.00;99.90;;;;;;4978270;28;20391;-64
2022/08/31 07:20:54;;;;;;;1.35;0.60;;;16.10;99.90;;;;;;4975671;28;20415;-64
2022/08/31 07:23:20;;;;;;;2.80;1.03;;;16.10;99.90;;;;;;4973529;28;20484;-64
2022/08/31 07:25:45;;;;;;;1.40;0.90;;;16.10;99.90;;;;;;4978741;28;20422;-65
2022/08/31 07:28:12;;;;;;;1.23;0.70;;;16.20;99.90;;;;;;4981312;28;20579;-64
2022/08/31 07:30:41;;;;;;;1.20;0.77;;;16.20;99.90;;;;;;4976566;28;20383;-65
2022/08/31 07:33:07;;;;;;;1.47;0.80;;;16.30;99.90;;;;;;4978402;28;20802;-65
2022/08/31 07:35:33;;;;;;;0.98;0.55;;;16.40;99.90;;;;;;4978449;28;20624;-65
2022/08/31 07:43:27;;;;;;;0.88;0.70;;;16.60;99.90;;;;;;4974267;28;20768;-65
2022/08/31 07:45:52;;;;;;;1.20;0.70;;;16.60;99.90;;;;;;4974014;28;20398;-64
2022/08/31 07:48:18;;;;;;;2.45;1.90;;;16.60;99.90;;;;;;4976062;28;20825;-64
2022/08/31 07:50:45;;;;;;;1.10;0.90;;;16.70;99.90;;;;;;4975816;28;20511;-65
2022/08/31 07:53:13;;;;;;;0.85;0.50;;;16.80;99.90;;;;;;4978946;28;20483;-64
2022/08/31 07:55:40;;;;;;;2.63;0.93;;;16.90;99.90;;;;;;4997387;28;20385;-64
2022/08/31 07:58:14;;;;;;;1.10;1.00;;;16.90;99.90;;;;;;5003100;28;20669;-64
2022/08/31 08:00:42;;;;;;;0.70;0.70;;;17.00;99.90;;;;;;5001999;28;20399;-64
2022/08/31 08:03:11;;;;;;;0.60;0.60;;;17.00;99.90;;;;;;4983369;28;20405;-65
2022/08/31 08:05:40;;;;;;;0.60;0.60;;;17.00;99.90;;;;;;4982296;28;20781;-65
2022/08/31 08:08:08;;;;;;;1.00;0.70;;;17.10;99.90;;;;;;4985265;28;20381;-64
2022/08/31 08:10:37;;;;;;;3.03;0.70;;;17.10;99.90;;;;;;4987682;28;20400;-64
2022/08/31 08:13:03;;;;;;;0.53;0.53;;;17.20;99.90;;;;;;4986888;28;20485;-64
2022/08/31 08:15:31;;;;;;;1.80;0.80;;;17.20;99.90;;;;;;5001178;28;20399;-64
2022/08/31 08:17:57;;;;;;;2.08;0.70;;;17.30;99.90;;;;;;5000115;28;20392;-64
2022/08/31 08:20:23;;;;;;;1.40;0.60;;;17.30;99.90;;;;;;5003239;28;20644;-65
2022/08/31 08:22:49;;;;;;;3.73;1.07;;;17.40;99.90;;;;;;4989900;28;20420;-64
2022/08/31 08:25:15;;;;;;;2.28;0.90;;;17.40;99.90;;;;;;4989100;28;20389;-65
2022/08/31 08:27:41;;;;;;;1.30;0.60;;;17.50;99.90;;;;;;5005044;28;20450;-65
2022/08/31 08:30:11;;;;;;;2.20;0.68;;;17.50;99.90;;;;;;4985530;28;20396;-64
2022/08/31 08:32:39;;;;;;;0.88;0.55;;;17.50;99.90;;;;;;4983333;28;20388;-65
2022/08/31 08:35:05;;;;;;;4.63;1.20;;;17.60;99.90;;;;;;4983383;28;20400;-64
2022/08/31 08:37:31;;;;;;;1.25;0.63;;;17.60;99.90;;;;;;5000125;28;20478;-64
2022/08/31 08:39:58;;;;;;;0.50;0.50;;;17.70;99.90;;;;;;4984902;28;20436;-65
2022/08/31 08:42:24;;;;;;;5.72;1.20;;;17.70;99.90;;;;;;4986513;28;20384;-64
2022/08/31 08:44:50;;;;;;;3.90;0.80;;;17.80;99.90;;;;;;4983338;28;20381;-64
2022/08/31 08:47:24;;;;;;;1.27;0.47;;;17.90;99.90;;;;;;4985628;28;20419;-64
2022/08/31 08:49:52;;;;;;;0.60;0.50;;;17.90;99.90;;;;;;4986605;28;20420;-65
2022/08/31 08:52:26;;;;;;;1.38;0.50;;;18.00;99.90;;;;;;4986164;28;20979;-64
2022/08/31 08:54:54;;;;;;;0.68;0.50;;;18.00;99.90;;;;;;5000602;28;20417;-64
2022/08/31 08:57:30;;;;;;;0.75;0.60;;;18.10;99.90;;;;;;4981932;28;20523;-64
2022/08/31 08:59:59;;;;;;;2.80;0.68;;;18.10;99.90;;;;;;4998464;28;20396;-64
2022/08/31 09:02:44;;;;;;;1.30;0.40;;;18.20;99.90;;;;;;5000844;28;20911;-64
2022/08/31 09:05:42;;;;;;;0.70;0.40;;;18.20;99.90;;;;;;4985054;28;20491;-64
2022/08/31 09:08:27;;;;;;;0.70;0.50;;;18.30;99.90;;;;;;5004411;28;20936;-64
2022/08/31 09:11:07;;;;;;;0.90;0.45;;;18.40;99.90;;;;;;4987388;28;20439;-64
2022/08/31 09:13:48;;;;;;;0.55;0.30;;;18.50;99.90;;;;;;5006001;28;20596;-64
2022/08/31 09:16:43;;;;;;;0.80;0.63;;;18.50;99.90;;;;;;5006031;28;20415;-64
2022/08/31 09:19:18;;;;;;;1.38;0.90;;;18.50;99.90;;;;;;4987191;28;20487;-64
2022/08/31 09:21:55;;;;;;;1.30;0.60;;;18.50;99.90;;;;;;4989069;28;20725;-64
2022/08/31 09:24:27;;;;;;;2.20;0.60;;;18.50;99.90;;;;;;4989129;28;20995;-64
2022/08/31 09:27:16;;;;;;;1.25;0.57;;;18.50;99.90;;;;;;4987473;28;20385;-64
2022/08/31 09:29:43;;;;;;;0.70;0.40;;;18.60;99.90;;;;;;4987803;28;20419;-64
2022/08/31 09:32:16;;;;;;;5.43;1.20;;;18.50;99.90;;;;;;4989511;28;20392;-65
2022/08/31 09:34:53;;;;;;;0.98;0.50;;;18.60;99.90;;;;;;4988978;28;20412;-64
2022/08/31 09:37:25;;;;;;;1.48;0.68;;;18.60;99.90;;;;;;4988227;28;20412;-64
2022/08/31 09:39:52;;;;;;;2.13;1.10;;;18.60;99.90;;;;;;4987354;28;20511;-64
2022/08/31 09:42:29;;;;;;;2.83;1.00;;;18.80;99.90;;;;;;4987424;28;20492;-65
2022/08/31 09:44:59;;;;;;;2.67;0.88;;;18.90;99.90;;;;;;5004998;28;20388;-64
2022/08/31 09:47:50;;;;;;;2.28;0.98;;;19.00;99.90;;;;;;5002362;28;20385;-65
2022/08/31 09:50:46;;;;;;;2.10;0.90;;;19.10;99.90;;;;;;4987237;28;20412;-65
2022/08/31 09:56:18;;;;;;;1.08;0.60;;;19.30;99.90;;;;;;5005776;28;20940;-65
2022/08/31 09:58:46;;;;;;;1.73;0.70;;;19.40;99.90;;;;;;4986736;28;20385;-64
2022/08/31 10:01:28;;;;;;;0.50;0.50;;;19.40;99.90;;;;;;4986773;28;20389;-64
2022/08/31 10:04:13;;;;;;;3.80;0.82;;;19.40;99.90;;;;;;4987734;28;20479;-65
2022/08/31 10:07:15;;;;;;;1.55;1.38;;;19.50;99.90;;;;;;4987772;28;20427;-65
2022/08/31 10:09:45;;;;;;;1.52;0.63;;;19.50;99.90;;;;;;4980477;28;20408;-65
2022/08/31 10:12:31;;;;;;;1.30;0.50;;;19.50;99.90;;;;;;4990209;28;20385;-65
2022/08/31 10:15:02;;;;;;;2.63;0.80;;;19.60;99.90;;;;;;4960224;28;20412;-65
2022/08/31 10:17:45;;;;;;;0.88;0.60;;;19.60;99.90;;;;;;5008238;28;20413;-64
2022/08/31 10:20:20;;;;;;;0.67;0.50;;;19.60;99.90;;;;;;5012190;28;20396;-64
2022/08/31 10:22:54;;;;;;;0.77;0.57;;;19.70;99.90;;;;;;5010816;28;20409;-64
2022/08/31 10:25:45;;;;;;;0.73;0.60;;;19.80;99.90;;;;;;4994168;28;20453;-64
2022/08/31 10:28:15;;;;;;;0.50;0.50;;;19.80;99.90;;;;;;5012710;28;20384;-64
2022/08/31 10:31:19;;;;;;;1.50;0.63;;;19.90;99.90;;;;;;4995453;28;20397;-64
2022/08/31 10:36:50;;;;;;;0.88;0.63;;;20.00;99.90;;;;;;5008350;28;20388;-64
2022/08/31 10:39:36;;;;;;;0.70;0.55;;;20.10;99.90;;;;;;4989855;28;20397;-64
2022/08/31 10:42:08;;;;;;;0.90;0.60;;;20.10;99.90;;;;;;4990053;28;20484;-64
2022/08/31 10:44:55;;;;;;;1.13;0.70;;;20.10;99.90;;;;;;4989618;28;20661;-65
2022/08/31 10:47:22;;;;;;;0.97;0.50;;;20.10;99.90;;;;;;4990860;28;20426;-64
2022/08/31 10:49:57;;;;;;;1.23;0.80;;;20.20;99.90;;;;;;4990236;28;20420;-64
2022/08/31 10:52:28;;;;;;;0.50;0.50;;;20.30;99.90;;;;;;5004234;28;20572;-64
2022/08/31 10:55:12;;;;;;;0.90;0.60;;;20.50;99.90;;;;;;4986543;28;20400;-64
2022/08/31 10:57:57;;;;;;;0.50;0.50;;;20.60;99.90;;;;;;4988923;28;20404;-65
2022/08/31 11:00:47;;;;;;;1.80;0.88;;;20.70;99.90;;;;;;4985367;28;20397;-65
2022/08/31 11:03:34;;;;;;;1.00;0.70;;;21.00;99.90;;;;;;5002053;28;20412;-65
2022/08/31 11:06:08;;;;;;;1.75;0.85;;;21.30;99.90;;;;;;4985501;28;20423;-65
2022/08/31 11:08:47;;;;;;;2.10;0.80;;;21.60;99.90;;;;;;4987282;28;20941;-64
2022/08/31 11:11:23;;;;;;;0.68;0.60;;;21.80;99.90;;;;;;4987693;28;20496;-65
2022/08/31 11:14:04;;;;;;;0.70;0.63;;;22.10;99.90;;;;;;5004875;28;21080;-64
2022/08/31 11:16:31;;;;;;;0.50;0.50;;;22.30;99.90;;;;;;4986502;28;20420;-64
2022/08/31 11:19:18;;;;;;;1.10;0.60;;;22.30;99.90;;;;;;4986693;28;20420;-65
2022/08/31 11:22:07;;;;;;;0.85;0.65;;;22.40;99.90;;;;;;5002475;28;20400;-65
2022/08/31 11:24:59;;;;;;;0.70;0.60;;;22.70;99.90;;;;;;4984761;28;20459;-65
2022/08/31 11:27:42;;;;;;;0.73;0.70;;;23.10;99.90;;;;;;4984751;28;20416;-65
2022/08/31 11:30:28;;;;;;;1.05;0.60;;;23.20;99.90;;;;;;4980358;28;20874;-65
2022/08/31 11:32:59;;;;;;;0.70;0.60;;;23.60;99.90;;;;;;4982410;28;21105;-65
2022/08/31 11:35:59;;;;;;;1.30;0.60;;;23.70;99.90;;;;;;4982095;28;20504;-65
2022/08/31 11:38:45;;;;;;;1.87;0.80;;;23.80;99.90;;;;;;4981162;28;20381;-66
2022/08/31 11:41:47;;;;;;;0.93;0.70;;;23.80;99.90;;;;;;5000389;28;20388;-65
2022/08/31 13:31:08;;;;;;;2.03;0.63;;;25.30;99.90;;;;;;599495;23;20690;31
2022/08/31 13:33:38;;;;;;;1.27;0.80;;;25.00;99.90;;;;;;4905339;29;20939;-67
2022/08/31 13:36:33;;;;;;;1.73;0.70;;;24.80;99.90;;;;;;4890342;29;20405;-67
2022/08/31 13:39:02;;;;;;;3.67;0.90;;;24.80;99.90;;;;;;4872772;29;20402;-67
2022/08/31 13:41:37;;;;;;;2.10;1.03;;;24.50;99.90;;;;;;4888429;29;20814;-67
2022/08/31 13:44:08;;;;;;;1.02;0.77;;;24.20;99.90;;;;;;4889003;29;20499;-67
2022/08/31 13:46:42;;;;;;;0.77;0.73;;;24.40;99.90;;;;;;4872103;29;20422;-68
2022/08/31 13:49:21;;;;;;;0.80;0.60;;;24.50;99.90;;;;;;4871646;29;20459;-68
2022/08/31 13:51:46;;;;;;;3.50;1.40;;;24.70;99.90;;;;;;4870104;29;20398;-68
2022/08/31 13:54:25;;;;;;;2.83;0.77;;;25.00;99.90;;;;;;4868956;29;20402;-68
2022/08/31 13:56:53;;;;;;;1.10;0.65;;;25.60;99.90;;;;;;4874251;29;20841;-68
2022/08/31 13:59:22;;;;;;;0.95;0.65;;;26.40;99.60;;;;;;4890428;29;20973;-68
2022/08/31 14:02:00;;;;;;;0.73;0.55;;;26.90;98.00;;;;;;4897715;29;20489;-68
2022/08/31 14:07:29;;;;;;;0.77;0.60;;;26.60;98.00;;;;;;4889462;29;20449;-69
2022/08/31 14:10:18;;;;;;;0.85;0.75;;;26.70;98.10;;;;;;4890657;29;20440;-68
2022/08/31 14:12:49;;;;;;;2.15;1.30;;;26.80;97.40;;;;;;4888359;29;20391;-65
2022/08/31 14:15:19;;;;;;;4.78;1.38;;;26.80;97.30;;;;;;4886963;29;20482;-70
2022/08/31 14:17:51;;;;;;;0.90;0.85;;;27.10;99.00;;;;;;4886840;29;20390;-70
2022/08/31 14:20:32;;;;;;;0.70;0.52;;;27.70;96.10;;;;;;4868657;29;20815;-70
2022/08/31 14:23:17;;;;;;;2.00;0.85;;;28.10;95.00;;;;;;4872513;29;20824;-70
2022/08/31 14:25:42;;;;;;;0.70;0.67;;;28.50;94.80;;;;;;4904717;29;20391;-70
2022/08/31 14:28:08;;;;;;;2.22;0.80;;;28.50;93.70;;;;;;4872713;29;20410;-71
2022/08/31 14:30:34;;;;;;;0.80;0.70;;;29.00;93.30;;;;;;4873897;29;20462;-70
2022/08/31 14:33:00;;;;;;;0.90;0.60;;;29.00;92.10;;;;;;4905535;29;20892;-70
2022/08/31 14:35:26;;;;;;;1.10;0.47;;;29.40;91.30;;;;;;4895685;29;20610;-71
2022/08/31 14:37:52;;;;;;;0.60;0.60;;;30.00;88.50;;;;;;4895093;29;20447;-70
2022/08/31 14:40:17;;;;;;;0.93;0.87;;;30.20;88.10;;;;;;4895277;29;20401;-70
2022/08/31 14:42:43;;;;;;;1.20;0.70;;;29.90;88.00;;;;;;4894654;29;20399;-69
2022/08/31 14:45:17;;;;;;;1.60;0.57;;;29.60;86.20;;;;;;4893700;29;20975;-70
2022/08/31 14:47:45;;;;;;;1.60;0.70;;;29.60;86.90;;;;;;4892322;29;20413;-70
2022/08/31 14:50:15;;;;;;;0.85;0.80;;;29.30;86.30;;;;;;4906698;29;20405;-71
2022/08/31 14:52:51;;;;;;;1.27;0.80;;;29.00;86.80;;;;;;4918101;29;20453;-69
2022/08/31 14:55:18;;;;;;;0.82;0.82;;;28.80;84.80;;;;;;4890011;29;20393;-70
2022/08/31 14:57:54;;;;;;;2.10;0.90;;;29.00;84.60;;;;;;4891683;29;20404;-70
2022/08/31 15:00:22;;;;;;;1.90;0.80;;;29.40;85.90;;;;;;4921888;29;20701;-69
2022/08/31 15:02:51;;;;;;;0.90;0.70;;;29.60;84.60;;;;;;4923908;29;20413;-70
2022/08/31 15:05:21;;;;;;;5.33;1.10;;;29.40;83.30;;;;;;4892554;29;20397;-70
2022/08/31 15:07:47;;;;;;;1.90;0.80;;;29.50;82.60;;;;;;4913294;29;20393;-70
2022/08/31 15:10:14;;;;;;;0.77;0.70;;;29.90;82.70;;;;;;4896514;29;20397;-70
2022/08/31 15:12:40;;;;;;;2.50;0.93;;;30.00;82.10;;;;;;4913497;29;20420;-71